Time;durP1;ratioP1;P1;durP2;ratioP2;P2;SDS_P1;SDS_P2;PMS_P1;PMS_P2;Temp;Humidity;BMP_temperature;BMP_pressure;BME280_temperature;BME280_humidity;BME280_pressure;Samples;Min_cycle;Max_cycle;Signal;HPM_P1;HPM_P2
2022/06/12 00:00:08;;;;;;;4.90;1.98;;;18.40;99.90;;;;;;5060938;28;20083;-78
2022/06/12 00:02:34;;;;;;;3.13;1.35;;;18.50;99.90;;;;;;5058569;28;20642;-78
2022/06/12 00:05:00;;;;;;;8.45;2.08;;;18.40;99.90;;;;;;5061516;28;20041;-77
2022/06/12 00:07:26;;;;;;;5.55;2.97;;;18.40;99.90;;;;;;5061590;28;20085;-78
2022/06/12 00:09:52;;;;;;;5.18;2.67;;;18.40;99.90;;;;;;5057666;28;20139;-78
2022/06/12 00:12:18;;;;;;;5.90;2.85;;;18.40;99.90;;;;;;5063645;28;20044;-78
2022/06/12 00:14:44;;;;;;;2.63;1.60;;;18.40;99.90;;;;;;5078593;28;20044;-78
2022/06/12 00:17:10;;;;;;;4.40;2.22;;;18.40;99.90;;;;;;5062672;28;20527;-77
2022/06/12 00:19:37;;;;;;;7.43;2.55;;;18.30;99.90;;;;;;5062919;28;20052;-78
2022/06/12 00:22:04;;;;;;;5.38;1.80;;;18.30;99.90;;;;;;5061575;28;20047;-78
2022/06/12 00:24:30;;;;;;;5.70;1.80;;;18.20;99.90;;;;;;5062834;28;20044;-78
2022/06/12 00:26:58;;;;;;;5.93;2.67;;;18.20;99.90;;;;;;5064834;28;20507;-78
2022/06/12 00:29:33;;;;;;;7.80;1.75;;;18.20;99.90;;;;;;5065137;28;20148;-78
2022/06/12 00:32:08;;;;;;;8.05;2.00;;;18.20;99.90;;;;;;5062012;28;20075;-78
2022/06/12 00:34:49;;;;;;;5.28;2.63;;;18.10;99.90;;;;;;5068550;28;20057;-78
2022/06/12 00:37:18;;;;;;;12.75;3.85;;;18.10;99.90;;;;;;5063728;28;21885;-78
2022/06/12 00:39:46;;;;;;;5.80;2.28;;;18.10;99.90;;;;;;5063822;28;20100;-78
2022/06/12 00:42:53;;;;;;;5.53;2.58;;;18.10;99.90;;;;;;5062637;28;20172;-78
2022/06/12 00:45:38;;;;;;;5.30;1.67;;;18.30;99.90;;;;;;5054048;28;20057;-78
2022/06/12 00:48:08;;;;;;;5.93;2.17;;;18.00;99.90;;;;;;5076420;28;20052;-78
2022/06/12 00:50:40;;;;;;;15.13;2.92;;;18.00;99.90;;;;;;5062584;28;20092;-78
2022/06/12 00:53:11;;;;;;;7.07;2.15;;;17.90;99.90;;;;;;5066499;28;20040;-78
2022/06/12 00:55:45;;;;;;;6.13;1.75;;;17.90;99.90;;;;;;5063989;28;20048;-78
2022/06/12 00:58:16;;;;;;;4.68;1.52;;;17.90;99.90;;;;;;5064555;28;20072;-78
2022/06/12 01:00:42;;;;;;;5.78;1.60;;;17.90;99.90;;;;;;5063591;28;20049;-78
2022/06/12 01:03:10;;;;;;;7.53;2.30;;;17.80;99.90;;;;;;5063671;28;20052;-78
2022/06/12 01:08:23;;;;;;;2.22;1.50;;;17.80;99.90;;;;;;5065796;28;20429;-78
2022/06/12 01:10:52;;;;;;;8.27;2.28;;;17.70;99.90;;;;;;5061411;28;20033;-78
2022/06/12 01:13:36;;;;;;;7.90;2.90;;;17.70;99.90;;;;;;5064803;28;20496;-78
2022/06/12 01:16:11;;;;;;;6.95;2.35;;;17.80;99.90;;;;;;5062034;28;20041;-79
2022/06/12 01:18:42;;;;;;;8.77;3.67;;;17.80;99.90;;;;;;5060661;28;20087;-79
2022/06/12 01:21:47;;;;;;;8.10;3.63;;;17.70;99.90;;;;;;5065094;28;20609;-79
2022/06/12 01:24:21;;;;;;;4.70;2.05;;;17.70;99.90;;;;;;5064706;28;20040;-79
2022/06/12 01:27:17;;;;;;;5.78;2.70;;;17.60;99.90;;;;;;5060032;28;20057;-79
2022/06/12 01:30:09;;;;;;;6.40;2.13;;;17.50;99.90;;;;;;5077458;28;20574;-79
2022/06/12 01:32:42;;;;;;;9.00;2.40;;;17.50;99.90;;;;;;5079244;28;20045;-78
2022/06/12 01:35:51;;;;;;;8.50;2.92;;;17.50;99.90;;;;;;5058325;28;20040;-78
2022/06/12 01:38:24;;;;;;;9.70;2.95;;;17.50;99.90;;;;;;5042868;28;20142;-79
2022/06/12 01:41:23;;;;;;;7.72;3.47;;;17.40;99.90;;;;;;5061925;28;20048;-78
2022/06/12 01:44:03;;;;;;;6.53;3.05;;;17.40;99.90;;;;;;5052721;28;20135;-78
2022/06/12 01:47:02;;;;;;;9.70;2.83;;;17.40;99.90;;;;;;5063552;28;20048;-78
2022/06/12 01:49:41;;;;;;;9.80;2.72;;;17.40;99.90;;;;;;5018773;28;21243;-78
2022/06/12 01:52:24;;;;;;;7.43;3.92;;;17.40;99.90;;;;;;5062087;28;20075;-78
2022/06/12 01:55:09;;;;;;;5.63;2.30;;;17.30;99.90;;;;;;5064297;28;20040;-78
2022/06/12 01:57:44;;;;;;;12.80;2.95;;;17.30;99.90;;;;;;5081218;28;20056;-78
2022/06/12 02:00:15;;;;;;;7.25;2.47;;;17.20;99.90;;;;;;5063109;28;20037;-78
2022/06/12 02:02:51;;;;;;;9.15;2.47;;;17.20;99.90;;;;;;5080250;28;20036;-78
2022/06/12 02:05:22;;;;;;;4.28;1.80;;;17.10;99.90;;;;;;5076178;28;20560;-78
2022/06/12 02:08:05;;;;;;;8.02;1.98;;;17.20;99.90;;;;;;5062872;28;20042;-78
2022/06/12 02:10:46;;;;;;;4.95;1.85;;;17.20;99.90;;;;;;5062934;28;20603;-78
2022/06/12 02:13:23;;;;;;;5.95;2.13;;;17.10;99.90;;;;;;5062669;28;20040;-79
2022/06/12 02:16:18;;;;;;;5.80;1.83;;;17.00;99.90;;;;;;5059330;28;20121;-78
2022/06/12 02:18:54;;;;;;;6.10;2.28;;;17.10;99.90;;;;;;5058684;28;20040;-78
2022/06/12 02:21:31;;;;;;;7.43;2.78;;;17.10;99.90;;;;;;5064022;28;20054;-78
2022/06/12 02:24:22;;;;;;;9.35;2.28;;;17.00;99.90;;;;;;5062827;28;20055;-77
2022/06/12 02:26:57;;;;;;;11.77;4.03;;;17.00;99.90;;;;;;5072114;28;20072;-78
2022/06/12 02:29:45;;;;;;;7.25;3.38;;;17.00;99.90;;;;;;5060945;28;20045;-78
2022/06/12 02:32:19;;;;;;;4.30;2.08;;;17.00;99.90;;;;;;5061477;28;20057;-78
2022/06/12 02:34:52;;;;;;;8.10;2.03;;;16.90;99.90;;;;;;5060991;28;20044;-78
2022/06/12 02:37:22;;;;;;;9.23;2.55;;;16.90;99.90;;;;;;5060052;28;20041;-78
2022/06/12 02:39:55;;;;;;;9.23;2.38;;;16.90;99.90;;;;;;5062007;28;20601;-78
2022/06/12 02:42:37;;;;;;;10.70;4.07;;;16.80;99.90;;;;;;5058838;28;20119;-78
2022/06/12 02:45:20;;;;;;;12.68;2.65;;;16.80;99.90;;;;;;5061428;28;20067;-78
2022/06/12 02:47:47;;;;;;;8.20;2.50;;;16.80;99.90;;;;;;5058178;28;20864;-78
2022/06/12 02:50:15;;;;;;;8.25;2.70;;;16.80;99.90;;;;;;5062019;28;20047;-78
2022/06/12 02:52:50;;;;;;;6.13;3.33;;;16.80;99.90;;;;;;5062698;28;20060;-78
2022/06/12 02:55:27;;;;;;;7.35;2.35;;;16.80;99.90;;;;;;5053369;28;20040;-78
2022/06/12 02:57:59;;;;;;;9.38;3.28;;;16.70;99.90;;;;;;5059874;28;20071;-78
2022/06/12 03:00:40;;;;;;;5.25;2.38;;;16.70;99.90;;;;;;5062158;28;20520;-78
2022/06/12 03:03:13;;;;;;;11.50;2.55;;;16.60;99.90;;;;;;5062327;28;20037;-78
2022/06/12 03:05:42;;;;;;;11.18;2.45;;;16.60;99.90;;;;;;5062312;28;20045;-78
2022/06/12 03:08:15;;;;;;;6.00;1.95;;;16.50;99.90;;;;;;5057323;28;20056;-79
2022/06/12 03:10:55;;;;;;;5.15;2.22;;;16.50;99.90;;;;;;5061007;28;20037;-78
2022/06/12 03:13:25;;;;;;;12.18;2.22;;;16.60;99.90;;;;;;5059088;28;20550;-78
2022/06/12 03:15:55;;;;;;;6.63;1.92;;;16.60;99.90;;;;;;5055087;28;20048;-78
2022/06/12 03:18:26;;;;;;;7.47;3.72;;;16.50;99.90;;;;;;5059624;28;20076;-78
2022/06/12 03:21:12;;;;;;;5.13;1.67;;;16.40;99.90;;;;;;5062844;28;20903;-78
2022/06/12 03:23:55;;;;;;;5.45;2.35;;;16.50;99.90;;;;;;5060835;28;20079;-79
2022/06/12 03:26:52;;;;;;;8.85;2.67;;;16.40;99.90;;;;;;5062023;28;20041;-78
2022/06/12 03:29:44;;;;;;;12.02;3.65;;;16.30;99.90;;;;;;5061330;28;20044;-78
2022/06/12 03:32:30;;;;;;;9.05;2.70;;;16.30;99.90;;;;;;5076983;28;20084;-78
2022/06/12 03:35:14;;;;;;;7.80;2.55;;;16.30;99.90;;;;;;5059868;28;20506;-78
2022/06/12 03:38:05;;;;;;;9.05;3.40;;;16.30;99.90;;;;;;5061074;28;21003;-78
2022/06/12 03:40:37;;;;;;;8.93;2.92;;;16.30;99.90;;;;;;5057410;28;20109;-78
2022/06/12 03:43:09;;;;;;;8.23;2.65;;;16.20;99.90;;;;;;5045760;28;20052;-78
2022/06/12 03:45:51;;;;;;;11.23;2.80;;;16.20;99.90;;;;;;5056887;28;20039;-78
2022/06/12 03:48:20;;;;;;;7.53;2.55;;;16.20;99.90;;;;;;5062481;28;20040;-78
2022/06/12 03:51:05;;;;;;;6.55;2.85;;;16.20;99.90;;;;;;5058690;28;20049;-78
2022/06/12 03:53:53;;;;;;;8.52;2.90;;;16.20;99.90;;;;;;5060939;28;20072;-78
2022/06/12 03:59:50;;;;;;;13.75;3.97;;;16.10;99.90;;;;;;5058412;28;20036;-78
2022/06/12 04:02:22;;;;;;;13.23;3.90;;;16.10;99.90;;;;;;5076181;28;20072;-78
2022/06/12 04:04:51;;;;;;;7.20;2.40;;;16.00;99.90;;;;;;5058336;28;20068;-78
2022/06/12 04:07:20;;;;;;;11.10;2.78;;;16.00;99.90;;;;;;5078922;28;20102;-79
2022/06/12 04:09:49;;;;;;;7.88;2.30;;;16.00;99.90;;;;;;5059823;28;20455;-78
2022/06/12 04:12:22;;;;;;;7.20;2.85;;;16.00;99.90;;;;;;5062417;28;20056;-78
2022/06/12 04:15:18;;;;;;;5.97;2.55;;;16.00;99.90;;;;;;5060090;28;20125;-78
2022/06/12 04:17:45;;;;;;;5.57;2.72;;;16.00;99.90;;;;;;5062328;28;20128;-78
2022/06/12 04:20:20;;;;;;;8.55;3.08;;;15.90;99.90;;;;;;5059766;28;20047;-78
2022/06/12 04:22:48;;;;;;;11.05;2.60;;;15.90;99.90;;;;;;5061621;28;20493;-78
2022/06/12 04:25:20;;;;;;;8.05;2.75;;;15.90;99.90;;;;;;5062916;28;20793;-78
2022/06/12 04:27:47;;;;;;;10.50;3.35;;;15.90;99.90;;;;;;5059606;28;20335;-77
2022/06/12 04:30:21;;;;;;;4.45;2.42;;;15.90;99.90;;;;;;5061727;28;20053;-78
2022/06/12 04:32:47;;;;;;;7.22;3.10;;;15.80;99.90;;;;;;5075372;28;20458;-79
2022/06/12 04:35:14;;;;;;;14.25;3.78;;;15.80;99.90;;;;;;5059979;28;20535;-78
2022/06/12 04:37:41;;;;;;;8.52;3.58;;;15.80;99.90;;;;;;5077758;27;20270;-78
2022/06/12 04:40:13;;;;;;;12.15;2.55;;;15.80;99.90;;;;;;5058768;28;20045;-79
2022/06/12 04:42:39;;;;;;;8.98;3.60;;;15.80;99.90;;;;;;5064247;28;20104;-78
2022/06/12 04:45:05;;;;;;;6.78;2.97;;;15.80;99.90;;;;;;5059574;28;20445;-79
2022/06/12 04:47:32;;;;;;;11.02;3.20;;;15.80;99.90;;;;;;5059578;28;20545;-78
2022/06/12 04:49:57;;;;;;;5.22;2.58;;;15.80;99.90;;;;;;5073673;28;20040;-79
2022/06/12 04:52:25;;;;;;;15.30;4.53;;;15.80;99.90;;;;;;5059626;28;20049;-79
2022/06/12 04:54:52;;;;;;;6.72;2.40;;;15.80;99.90;;;;;;5076383;28;20037;-78
2022/06/12 04:57:18;;;;;;;8.80;3.45;;;15.80;99.90;;;;;;5063000;28;20041;-78
2022/06/12 04:59:46;;;;;;;8.40;3.75;;;15.80;99.90;;;;;;5064036;28;20608;-78
2022/06/12 05:02:12;;;;;;;7.20;3.25;;;15.80;99.90;;;;;;5062400;28;20901;-78
2022/06/12 05:04:39;;;;;;;11.38;3.22;;;15.80;99.90;;;;;;5064413;28;20037;-78
2022/06/12 05:07:07;;;;;;;6.53;2.97;;;15.80;99.90;;;;;;5063385;28;20550;-78
2022/06/12 05:09:35;;;;;;;8.23;3.53;;;15.80;99.90;;;;;;5064762;28;20047;-78
2022/06/12 05:12:01;;;;;;;8.70;3.17;;;15.80;99.90;;;;;;5063172;28;20074;-78
2022/06/12 05:14:26;;;;;;;14.27;3.92;;;15.80;99.90;;;;;;5063338;28;20933;-78
2022/06/12 05:16:57;;;;;;;7.43;3.67;;;15.80;99.90;;;;;;5077479;28;20064;-78
2022/06/12 05:19:27;;;;;;;9.40;3.75;;;15.80;99.90;;;;;;5063406;28;20094;-79
2022/06/12 05:21:53;;;;;;;8.00;2.50;;;15.80;99.90;;;;;;5063535;28;20044;-78
2022/06/12 05:24:19;;;;;;;7.25;2.33;;;15.90;99.90;;;;;;5062374;28;20855;-78
2022/06/12 05:26:47;;;;;;;9.65;2.53;;;15.50;99.90;;;;;;5063633;28;20052;-78
2022/06/12 05:29:26;;;;;;;7.38;4.03;;;15.90;99.90;;;;;;5062371;28;20049;-78
2022/06/12 05:31:52;;;;;;;7.13;2.25;;;15.90;99.90;;;;;;5060148;28;20581;-79
2022/06/12 05:34:18;;;;;;;10.88;2.15;;;15.90;99.90;;;;;;5061553;28;20671;-78
2022/06/12 05:36:45;;;;;;;10.18;2.53;;;15.90;99.90;;;;;;5064835;28;20040;-78
2022/06/12 05:39:11;;;;;;;6.00;2.53;;;15.90;99.90;;;;;;5062533;28;20041;-78
2022/06/12 05:41:37;;;;;;;4.97;2.72;;;15.90;99.90;;;;;;5061026;28;20148;-78
2022/06/12 05:44:03;;;;;;;10.15;2.72;;;15.90;99.90;;;;;;5059075;28;20065;-78
2022/06/12 05:46:29;;;;;;;5.53;1.88;;;15.90;99.90;;;;;;5064403;28;20040;-78
2022/06/12 05:48:55;;;;;;;6.97;2.17;;;15.90;99.90;;;;;;5060834;28;20516;-78
2022/06/12 05:51:21;;;;;;;4.53;2.03;;;15.90;99.90;;;;;;5077454;28;20037;-78
2022/06/12 05:53:47;;;;;;;12.80;2.70;;;16.00;99.90;;;;;;5061551;28;20095;-78
2022/06/12 05:56:16;;;;;;;8.73;2.22;;;16.00;99.90;;;;;;5063975;28;20052;-79
2022/06/12 05:58:43;;;;;;;8.75;2.55;;;15.90;99.90;;;;;;5060689;28;20091;-78
2022/06/12 06:01:13;;;;;;;10.45;3.03;;;16.00;99.90;;;;;;5058004;28;20166;-79
2022/06/12 06:03:39;;;;;;;10.35;3.35;;;16.00;99.90;;;;;;5063751;28;20044;-78
2022/06/12 06:06:06;;;;;;;10.20;2.47;;;16.00;99.90;;;;;;5058527;28;20172;-79
2022/06/12 06:08:33;;;;;;;7.03;2.28;;;16.00;99.90;;;;;;5062569;28;20067;-78
2022/06/12 06:10:58;;;;;;;7.70;2.88;;;16.00;99.90;;;;;;5058911;28;20826;-78
2022/06/12 06:13:24;;;;;;;7.57;3.00;;;16.10;99.90;;;;;;5063660;28;20045;-78
2022/06/12 06:15:50;;;;;;;11.27;2.30;;;16.10;99.90;;;;;;5061362;28;20090;-79
2022/06/12 06:18:17;;;;;;;9.57;3.17;;;16.20;99.90;;;;;;5061808;28;20041;-78
2022/06/12 06:20:43;;;;;;;6.78;2.45;;;16.20;99.90;;;;;;5058468;28;20637;-78
2022/06/12 06:23:09;;;;;;;8.93;2.80;;;16.20;99.90;;;;;;5057989;28;20041;-78
2022/06/12 06:25:36;;;;;;;10.52;2.22;;;16.20;99.90;;;;;;5060942;28;20041;-78
2022/06/12 06:28:03;;;;;;;6.55;2.75;;;16.30;99.90;;;;;;5077541;28;20048;-78
2022/06/12 06:30:29;;;;;;;9.73;2.22;;;16.40;99.90;;;;;;5063173;28;20096;-79
2022/06/12 06:32:56;;;;;;;7.35;2.83;;;16.50;99.90;;;;;;5057024;28;20036;-79
2022/06/12 06:35:22;;;;;;;13.05;4.10;;;16.60;99.90;;;;;;5060403;28;20496;-78
2022/06/12 06:37:49;;;;;;;9.02;2.72;;;16.80;99.90;;;;;;5075578;27;20045;-79
2022/06/12 06:40:16;;;;;;;11.73;3.15;;;16.80;99.90;;;;;;5061506;28;20140;-78
2022/06/12 06:42:42;;;;;;;5.50;2.63;;;16.70;99.90;;;;;;5062151;28;20056;-78
2022/06/12 06:47:55;;;;;;;7.20;2.65;;;16.80;99.90;;;;;;5064490;28;20116;-78
2022/06/12 06:50:21;;;;;;;7.53;2.75;;;16.80;99.90;;;;;;5075843;28;20049;-78
2022/06/12 06:52:47;;;;;;;5.82;3.35;;;16.70;99.90;;;;;;5059604;28;20089;-79
2022/06/12 06:55:13;;;;;;;10.13;2.20;;;16.70;99.90;;;;;;5060199;28;20127;-78
2022/06/12 06:57:43;;;;;;;4.90;2.45;;;16.70;99.90;;;;;;5075945;28;20156;-79
2022/06/12 07:00:13;;;;;;;7.55;2.17;;;16.60;99.90;;;;;;5059348;28;20049;-78
2022/06/12 07:02:40;;;;;;;7.85;2.40;;;16.60;99.90;;;;;;5061631;28;20083;-78
2022/06/12 07:05:07;;;;;;;11.95;3.17;;;16.60;99.90;;;;;;5076204;28;20072;-79
2022/06/12 07:07:36;;;;;;;7.13;2.10;;;16.60;99.90;;;;;;5061435;28;20048;-78
2022/06/12 07:10:05;;;;;;;3.88;1.55;;;16.60;99.90;;;;;;5059464;28;20059;-78
2022/06/12 07:12:31;;;;;;;6.13;2.58;;;16.60;99.90;;;;;;5057497;28;20041;-78
2022/06/12 07:14:57;;;;;;;10.95;2.25;;;16.60;99.90;;;;;;5062732;28;20045;-79
2022/06/12 07:17:23;;;;;;;5.43;2.00;;;16.60;99.90;;;;;;5057516;28;20123;-78
2022/06/12 07:19:49;;;;;;;6.68;1.73;;;16.70;99.90;;;;;;5061927;28;20530;-81
2022/06/12 07:22:15;;;;;;;5.15;2.40;;;16.70;99.90;;;;;;5056560;28;20044;-81
2022/06/12 07:24:42;;;;;;;6.72;1.83;;;16.70;99.90;;;;;;5056346;28;20535;-81
2022/06/12 07:27:08;;;;;;;4.72;1.95;;;16.70;99.90;;;;;;5058364;28;20055;-88
2022/06/12 07:29:34;;;;;;;9.18;3.17;;;16.80;99.90;;;;;;5057075;28;20053;-80
2022/06/12 07:31:59;;;;;;;5.35;2.38;;;16.80;99.90;;;;;;5057655;28;20042;-80
2022/06/12 07:34:26;;;;;;;7.30;3.60;;;16.90;99.90;;;;;;5060076;28;20041;-80
2022/06/12 07:36:53;;;;;;;7.78;2.85;;;16.90;99.90;;;;;;5062491;28;20063;-81
2022/06/12 07:39:25;;;;;;;3.83;1.73;;;16.90;99.90;;;;;;5064302;28;20620;-81
2022/06/12 07:41:52;;;;;;;4.07;1.58;;;16.90;99.90;;;;;;5064419;28;20184;-81
2022/06/12 07:44:21;;;;;;;7.90;2.20;;;17.00;99.90;;;;;;5062787;28;20461;-80
2022/06/12 07:46:50;;;;;;;5.20;1.70;;;17.00;99.90;;;;;;5063808;28;20616;-80
2022/06/12 07:49:16;;;;;;;7.50;2.00;;;17.00;99.90;;;;;;5058057;28;20119;-80
2022/06/12 07:51:42;;;;;;;6.90;2.50;;;17.00;99.90;;;;;;5060120;28;20103;-80
2022/06/12 07:54:08;;;;;;;6.47;2.28;;;17.10;99.90;;;;;;5058019;28;20533;-80
2022/06/12 07:56:34;;;;;;;4.15;2.28;;;17.10;99.90;;;;;;5060522;28;20391;-80
2022/06/12 07:59:00;;;;;;;10.38;1.83;;;17.10;99.90;;;;;;5059599;28;20106;-80
2022/06/12 08:01:28;;;;;;;4.25;1.73;;;17.10;99.90;;;;;;5060706;28;20119;-80
2022/06/12 08:03:54;;;;;;;5.75;2.15;;;17.10;99.90;;;;;;5057021;28;20037;-80
2022/06/12 08:06:21;;;;;;;12.45;3.45;;;17.20;99.90;;;;;;5061083;28;20044;-80
2022/06/12 08:08:47;;;;;;;7.80;1.52;;;17.20;99.90;;;;;;5058234;28;20566;-81
2022/06/12 08:11:12;;;;;;;5.72;1.48;;;17.30;99.90;;;;;;5061745;28;20048;-79
2022/06/12 08:13:39;;;;;;;6.35;1.85;;;17.30;99.90;;;;;;5060510;28;20122;-79
2022/06/12 08:16:05;;;;;;;5.50;2.65;;;17.30;99.90;;;;;;5059931;28;20497;-80
2022/06/12 08:18:31;;;;;;;13.45;2.35;;;17.40;99.90;;;;;;5046917;28;20052;-79
2022/06/12 08:21:01;;;;;;;3.35;1.27;;;17.30;99.90;;;;;;5053371;28;20048;-78
2022/06/12 08:23:48;;;;;;;3.47;1.40;;;17.40;99.90;;;;;;5070905;28;20840;-79
2022/06/12 08:26:19;;;;;;;3.25;1.60;;;17.40;99.90;;;;;;5062325;28;20559;-78
2022/06/12 08:28:49;;;;;;;4.63;1.73;;;17.50;99.90;;;;;;5061839;28;20379;-79
2022/06/12 08:31:22;;;;;;;4.60;1.70;;;17.50;99.90;;;;;;5061563;28;20048;-79
2022/06/12 08:33:51;;;;;;;6.97;2.15;;;17.50;99.90;;;;;;5058919;28;20327;-79
2022/06/12 08:36:19;;;;;;;10.43;1.92;;;17.50;99.90;;;;;;5047637;28;20048;-79
2022/06/12 08:38:47;;;;;;;5.82;2.13;;;17.60;99.90;;;;;;5057738;28;20045;-79
2022/06/12 08:41:19;;;;;;;10.85;2.78;;;17.60;99.90;;;;;;5062342;28;20045;-79
2022/06/12 08:43:53;;;;;;;4.75;1.85;;;17.60;99.90;;;;;;5078592;27;20095;-79
2022/06/12 08:46:30;;;;;;;6.18;1.88;;;17.60;99.90;;;;;;5065265;28;20652;-79
2022/06/12 08:49:25;;;;;;;7.93;2.10;;;17.60;99.90;;;;;;5063070;28;20036;-78
2022/06/12 08:52:01;;;;;;;5.10;1.70;;;17.70;99.90;;;;;;5040006;28;20056;-78
2022/06/12 08:54:35;;;;;;;6.10;2.10;;;17.80;99.90;;;;;;5067777;28;20542;-79
2022/06/12 08:57:10;;;;;;;6.93;1.60;;;17.90;99.90;;;;;;5065672;28;20052;-79
2022/06/12 08:59:42;;;;;;;4.88;1.77;;;17.90;99.90;;;;;;5065234;28;20047;-78
2022/06/12 09:02:19;;;;;;;4.50;1.30;;;17.90;99.90;;;;;;5066696;28;20150;-79
2022/06/12 09:04:45;;;;;;;4.30;1.83;;;17.90;99.90;;;;;;5066339;28;20060;-79
2022/06/12 09:07:34;;;;;;;8.30;2.45;;;17.90;99.90;;;;;;5066211;28;20124;-79
2022/06/12 09:10:06;;;;;;;5.25;1.90;;;18.00;99.90;;;;;;5060037;28;20627;-79
2022/06/12 09:12:45;;;;;;;4.85;1.60;;;18.00;99.90;;;;;;5063387;28;20047;-79
2022/06/12 09:15:53;;;;;;;7.28;2.13;;;18.00;99.90;;;;;;5066654;28;20071;-79
2022/06/12 09:18:33;;;;;;;5.60;1.38;;;18.10;99.90;;;;;;5066527;28;20095;-79
2022/06/12 09:21:11;;;;;;;4.20;1.80;;;18.10;99.90;;;;;;5079756;28;20045;-79
2022/06/12 09:24:00;;;;;;;3.22;1.95;;;18.10;99.90;;;;;;5066351;28;20533;-79
2022/06/12 09:26:46;;;;;;;5.82;1.60;;;18.10;99.90;;;;;;5063226;28;20040;-79
2022/06/12 09:29:39;;;;;;;7.25;1.60;;;18.10;99.90;;;;;;5064580;28;20084;-79
2022/06/12 09:32:45;;;;;;;3.55;1.30;;;18.20;99.90;;;;;;5080835;28;20045;-79
2022/06/12 09:35:53;;;;;;;7.32;1.60;;;18.20;99.90;;;;;;5046976;28;20135;-80
2022/06/12 09:38:48;;;;;;;6.35;1.75;;;18.20;99.90;;;;;;5058774;28;20415;-79
2022/06/12 09:41:22;;;;;;;4.22;1.83;;;18.20;99.90;;;;;;5059146;28;20550;-79
2022/06/12 09:44:12;;;;;;;5.30;1.38;;;18.20;99.90;;;;;;5063396;28;20506;-79
2022/06/12 09:46:59;;;;;;;3.70;1.45;;;18.30;99.90;;;;;;5064774;28;20051;-84
2022/06/12 09:49:28;;;;;;;6.60;1.52;;;18.30;99.90;;;;;;5069726;28;20093;-86
2022/06/12 09:52:06;;;;;;;4.90;3.13;;;18.30;99.90;;;;;;5061936;28;20520;-79
2022/06/12 09:54:54;;;;;;;4.60;1.33;;;18.30;99.90;;;;;;5063279;28;20801;-80
2022/06/12 09:57:27;;;;;;;4.13;2.17;;;18.40;99.90;;;;;;5079239;28;20068;-79
2022/06/12 10:00:31;;;;;;;13.95;2.55;;;18.40;99.90;;;;;;5063871;28;20119;-80
2022/06/12 10:03:07;;;;;;;6.22;1.38;;;18.40;99.90;;;;;;5046668;28;20200;-79
2022/06/12 10:05:43;;;;;;;4.43;2.08;;;18.50;99.90;;;;;;5060569;28;20139;-80
2022/06/12 10:08:26;;;;;;;3.95;1.73;;;18.40;99.90;;;;;;5065630;28;20730;-79
2022/06/12 10:11:09;;;;;;;2.22;1.38;;;18.50;99.90;;;;;;5063393;28;20101;-79
2022/06/12 10:13:47;;;;;;;5.03;1.73;;;18.60;99.90;;;;;;5066405;28;20067;-79
2022/06/12 10:16:21;;;;;;;3.20;1.23;;;18.60;99.90;;;;;;5064032;28;20049;-79
2022/06/12 10:19:03;;;;;;;4.18;1.50;;;18.60;99.90;;;;;;5066056;28;20107;-79
2022/06/12 10:21:35;;;;;;;4.47;2.05;;;18.60;99.90;;;;;;5066261;28;20091;-79
2022/06/12 10:24:03;;;;;;;2.10;1.13;;;18.70;99.90;;;;;;5080649;28;20053;-79
2022/06/12 10:26:31;;;;;;;6.25;1.50;;;18.70;99.90;;;;;;5065928;28;20049;-79
2022/06/12 10:29:13;;;;;;;5.72;2.28;;;18.70;99.90;;;;;;5065994;28;20040;-80
2022/06/12 10:31:55;;;;;;;4.95;1.73;;;18.70;99.90;;;;;;5062232;28;20045;-79
2022/06/12 10:34:24;;;;;;;8.60;2.20;;;18.70;99.90;;;;;;5065881;28;20045;-80
2022/06/12 10:36:50;;;;;;;5.47;1.75;;;18.80;99.90;;;;;;5064389;28;20048;-79
2022/06/12 10:39:20;;;;;;;7.28;1.83;;;18.80;99.90;;;;;;5064502;28;20045;-79
2022/06/12 10:41:55;;;;;;;8.63;2.38;;;18.90;99.90;;;;;;5064171;28;20063;-79
2022/06/12 10:44:53;;;;;;;4.50;2.35;;;18.90;99.90;;;;;;5064157;28;20519;-79
2022/06/12 10:47:28;;;;;;;9.05;2.40;;;18.90;99.90;;;;;;5064734;28;20465;-79
2022/06/12 10:50:39;;;;;;;4.30;2.10;;;19.00;99.90;;;;;;5064769;28;20443;-78
2022/06/12 10:53:08;;;;;;;4.68;1.85;;;19.00;99.90;;;;;;5040042;28;20065;-79
2022/06/12 10:55:59;;;;;;;4.32;2.10;;;19.00;99.90;;;;;;5062758;28;20041;-79
2022/06/12 10:58:45;;;;;;;7.90;2.22;;;19.00;99.90;;;;;;5059933;28;20045;-78
2022/06/12 11:01:38;;;;;;;9.18;3.03;;;19.10;99.90;;;;;;5063422;28;20182;-78
2022/06/12 11:04:14;;;;;;;7.18;2.58;;;19.10;99.90;;;;;;5066090;28;20052;-81
2022/06/12 11:07:07;;;;;;;7.65;3.08;;;19.20;99.90;;;;;;5064801;28;20880;-82
2022/06/12 11:09:55;;;;;;;3.10;1.98;;;19.20;99.90;;;;;;5061523;28;20611;-79
2022/06/12 11:12:50;;;;;;;5.45;2.17;;;19.20;99.90;;;;;;5063071;28;20045;-79
2022/06/12 11:15:44;;;;;;;5.50;2.38;;;19.20;99.90;;;;;;5064383;28;20041;-79
2022/06/12 11:18:39;;;;;;;6.90;2.35;;;19.20;99.90;;;;;;5059025;28;20533;-79
2022/06/12 11:21:30;;;;;;;3.08;2.05;;;19.30;99.90;;;;;;5062922;28;20049;-81
2022/06/12 11:24:16;;;;;;;3.33;1.85;;;19.30;99.90;;;;;;5065419;28;20596;-90
2022/06/12 11:27:13;;;;;;;4.28;2.05;;;19.30;99.90;;;;;;5065393;28;20055;-82
2022/06/12 11:29:41;;;;;;;3.22;1.85;;;19.20;99.90;;;;;;5068796;28;20044;-85
2022/06/12 11:32:26;;;;;;;13.13;2.30;;;19.30;99.90;;;;;;5069816;28;20049;-83
2022/06/12 11:35:12;;;;;;;5.35;2.15;;;19.40;99.90;;;;;;5065461;28;20045;-84
2022/06/12 11:37:58;;;;;;;5.20;1.92;;;19.40;99.90;;;;;;5067153;28;20040;-84
2022/06/12 11:40:53;;;;;;;9.13;2.08;;;19.40;99.90;;;;;;5061388;28;20044;-83
2022/06/12 11:43:31;;;;;;;6.60;3.22;;;19.40;99.90;;;;;;5068401;28;20060;-84
2022/06/12 11:46:08;;;;;;;4.28;2.47;;;19.40;99.90;;;;;;5065722;28;20108;-84
2022/06/12 11:48:40;;;;;;;13.50;3.67;;;19.40;99.90;;;;;;5064860;28;20048;-87
2022/06/12 11:51:32;;;;;;;4.43;2.28;;;19.40;99.90;;;;;;5057043;28;20443;-84
2022/06/12 11:54:30;;;;;;;5.72;2.83;;;19.50;99.90;;;;;;5071123;28;20159;-84
2022/06/12 11:57:05;;;;;;;8.88;3.95;;;19.60;99.90;;;;;;5065505;28;20049;-82
2022/06/12 12:00:04;;;;;;;7.53;4.43;;;19.60;99.90;;;;;;5063693;28;20049;-80
2022/06/12 12:02:37;;;;;;;5.78;3.40;;;19.70;99.90;;;;;;5081199;28;20036;-80
2022/06/12 12:05:15;;;;;;;7.60;2.63;;;19.70;99.70;;;;;;5064168;28;20045;-80
2022/06/12 12:08:06;;;;;;;4.10;2.67;;;19.70;99.40;;;;;;5060992;28;20553;-80
2022/06/12 12:10:44;;;;;;;4.68;2.72;;;19.70;99.20;;;;;;5066841;28;20167;-80
2022/06/12 12:13:17;;;;;;;5.78;2.17;;;19.70;99.00;;;;;;5049636;28;20045;-81
2022/06/12 12:15:53;;;;;;;4.68;2.72;;;19.70;98.70;;;;;;5062190;28;20106;-80
2022/06/12 12:18:38;;;;;;;5.38;2.40;;;19.70;98.60;;;;;;5060157;28;20028;-80
2022/06/12 12:21:11;;;;;;;5.22;2.50;;;19.80;98.60;;;;;;5060412;28;20075;-79
2022/06/12 12:23:42;;;;;;;3.95;2.50;;;19.80;98.30;;;;;;5065238;28;20664;-79
2022/06/12 12:26:24;;;;;;;6.80;2.83;;;19.90;98.00;;;;;;5062356;28;20139;-80
2022/06/12 12:28:54;;;;;;;3.72;2.17;;;19.90;97.50;;;;;;5062251;28;20044;-80
2022/06/12 12:31:21;;;;;;;9.63;2.63;;;19.90;97.00;;;;;;5061266;28;20045;-80
2022/06/12 12:33:49;;;;;;;5.65;2.40;;;19.90;97.10;;;;;;5060771;28;20677;-79
2022/06/12 12:41:54;;;;;;;6.25;2.92;;;20.00;95.70;;;;;;5062388;28;20162;-79
2022/06/12 12:44:36;;;;;;;6.95;2.60;;;20.00;95.60;;;;;;5063442;28;20520;-81
2022/06/12 12:47:23;;;;;;;6.50;3.03;;;19.90;95.60;;;;;;5076530;28;20044;-83
2022/06/12 12:50:05;;;;;;;6.18;3.17;;;20.00;95.70;;;;;;5061483;28;20787;-87
2022/06/12 12:52:45;;;;;;;8.70;2.50;;;20.00;96.20;;;;;;5062684;28;20075;-82
2022/06/12 12:55:38;;;;;;;6.00;3.33;;;20.00;96.30;;;;;;5063294;28;20084;-82
2022/06/12 12:58:19;;;;;;;4.28;2.72;;;20.00;96.20;;;;;;5061818;28;20053;-84
2022/06/12 13:00:46;;;;;;;5.47;2.60;;;20.00;96.00;;;;;;5062695;28;20082;-82
2022/06/12 13:03:28;;;;;;;6.82;2.58;;;20.00;95.80;;;;;;5062178;28;20171;-82
2022/06/12 13:06:03;;;;;;;5.60;3.40;;;20.00;96.20;;;;;;5061997;28;20486;-82
2022/06/12 13:09:11;;;;;;;8.38;4.00;;;20.00;96.40;;;;;;5063776;28;20415;-82
2022/06/12 13:12:01;;;;;;;4.28;2.58;;;20.10;96.70;;;;;;5045025;28;20060;-81
2022/06/12 13:15:09;;;;;;;6.22;2.80;;;20.10;96.60;;;;;;5078416;28;20289;-82
2022/06/12 13:18:07;;;;;;;5.55;2.78;;;20.20;96.50;;;;;;5056921;28;20527;-79
2022/06/12 13:21:03;;;;;;;4.60;2.58;;;20.30;95.90;;;;;;5066261;28;20132;-80
2022/06/12 13:23:50;;;;;;;6.63;3.15;;;20.20;96.00;;;;;;5067487;28;20044;-80
2022/06/12 13:26:19;;;;;;;8.70;4.53;;;20.30;95.60;;;;;;5065147;28;20503;-80
2022/06/12 13:28:54;;;;;;;4.82;2.95;;;20.20;95.70;;;;;;5064325;28;20041;-81
2022/06/12 13:31:21;;;;;;;6.22;2.88;;;20.30;95.80;;;;;;5063312;28;20827;-80
2022/06/12 13:33:58;;;;;;;7.05;2.80;;;20.30;95.90;;;;;;5065083;28;20592;-81
2022/06/12 13:36:47;;;;;;;5.00;2.67;;;20.30;95.80;;;;;;5066922;28;20072;-80
2022/06/12 13:39:25;;;;;;;6.15;3.08;;;20.40;95.70;;;;;;5066453;28;20033;-80
2022/06/12 13:42:00;;;;;;;5.05;3.08;;;20.40;95.70;;;;;;5064048;28;20531;-80